Latest Weather Observations for Tindal

IDD60801

Issued at 2:35 pm CST Friday 29 August 2014 (issued every 30 minutes, with the page automatically refreshed every 10 minutes)

About weather observations | Map of weather stations | Latest weather observations for NT | Other Formats
Station Details ID: 014932 Name: TINDAL RAAF Lat: -14.52 Lon: 132.38 Height: 133.6 m
Data from the previous 72 hours. | See also: Recent months at Tindal
Date/Time
CST
Temp
°C
App
Temp
°C
Dew
Point
Rel
Hum
%
Delta-T
°C
Wind Press
QNH
hPa
Press
MSL
hPa
Rain
since 9 am
mm
Dir
 
Spd
km/h
Gust
km/h
Spd
kts
Gust
kts
29/02:30pm 30.5 24.4 -2.1 12 15.2 E 20 28 11 15 1014.1 - 0.0
29/02:00pm 30.2 24.4 -1.2 13 14.8 SE 19 33 10 18 1014.6 - 0.0
29/01:30pm 30.3 24.3 -1.2 13 14.9 SE 20 30 11 16 1015.0 - 0.0
29/01:00pm 29.4 22.7 -0.9 14 14.3 E 24 30 13 16 1015.5 - 0.0
29/12:30pm 29.4 22.9 0.1 15 14.0 E 24 28 13 15 1015.9 - 0.0
29/12:00pm 29.0 21.0 -2.2 13 14.3 ESE 30 37 16 20 1016.5 1015.9 0.0
29/11:30am 28.3 21.1 0.9 17 13.2 E 28 35 15 19 1017.1 - 0.0
29/11:00am 27.8 22.9 4.2 22 12.0 E 19 28 10 15 1017.6 - 0.0
29/10:30am 26.5 21.5 3.7 23 11.4 ESE 19 28 10 15 1018.1 - 0.0
29/10:00am 24.9 20.4 4.1 26 10.4 SE 17 22 9 12 1018.1 - 0.0
29/09:30am 23.0 19.1 5.4 32 8.9 SE 15 20 8 11 1018.1 - 0.0
29/09:06am 21.0 17.4 5.0 35 7.9 ESE 13 19 7 10 1018.0 - 0.0
29/09:00am 20.9 17.4 5.3 36 7.7 ESE 13 - 7 - - 1017.4 0.0
29/08:30am 18.3 14.3 4.8 41 6.5 SSE 15 20 8 11 1017.8 - 0.0
29/08:00am 16.0 12.5 3.4 43 5.8 ESE 11 13 6 7 1017.4 - 0.0
29/07:30am 14.2 10.9 2.5 45 5.2 SE 9 11 5 6 1017.3 - 0.0
29/07:00am 12.5 8.8 2.4 50 4.4 ESE 11 15 6 8 1017.0 - 0.0
29/06:30am 12.1 8.3 1.7 49 4.5 SE 11 13 6 7 1016.7 - 0.0
29/06:00am 13.7 9.1 1.7 44 5.2 SE 15 19 8 10 1016.3 1015.7 0.0
29/05:30am 13.6 8.7 1.9 45 5.1 SE 17 20 9 11 1016.2 - 0.0
29/05:00am 14.2 9.3 1.8 43 5.4 SE 17 20 9 11 1015.7 - 0.0
29/04:30am 14.4 8.9 2.0 43 5.5 SSE 20 24 11 13 1015.2 - 0.0
29/04:00am 15.6 11.0 1.7 39 6.2 ESE 15 17 8 9 1014.8 - 0.0
29/03:30am 14.4 10.3 2.3 44 5.4 ESE 13 15 7 8 1014.7 - 0.0
29/03:00am 14.7 10.7 2.6 44 5.4 ESE 13 15 7 8 1014.8 1014.3 0.0
29/02:30am 13.1 9.0 2.1 47 4.8 SE 13 15 7 8 1014.9 - 0.0
29/02:00am 14.1 10.3 1.7 43 5.4 SE 11 11 6 6 1015.0 - 0.0
29/01:30am 14.7 10.8 0.9 39 6.0 SE 11 13 6 7 1015.2 - 0.0
29/01:00am 15.7 11.7 0.3 35 6.6 SE 11 13 6 7 1015.4 - 0.0
29/12:30am 16.4 12.3 -0.3 32 7.1 ESE 11 11 6 6 1015.6 - 0.0
29/12:00am 17.4 12.8 -1.3 28 7.9 SE 13 15 7 8 1015.8 1015.3 0.0
 
Date/Time
CST
Temp
°C
App
Temp
°C
Dew
Point
Rel
Hum
%
Delta-T
°C
Wind Press
QNH
hPa
Press
MSL
hPa
Rain
since 9 am
mm
Dir
 
Spd
km/h
Gust
km/h
Spd
kts
Gust
kts
28/11:30pm 20.7 16.2 -0.6 24 9.4 E 13 19 7 10 1015.8 - 0.0
28/11:00pm 17.2 12.9 -1.4 28 7.8 SE 11 13 6 7 1015.8 - 0.0
28/10:30pm 17.2 12.6 -1.4 28 7.8 SE 13 15 7 8 1015.8 - 0.0
28/10:00pm 18.2 13.8 -2.1 25 8.5 ESE 11 13 6 7 1015.5 - 0.0
28/09:30pm 16.8 13.0 -0.4 31 7.4 SE 9 11 5 6 1015.4 - 0.0
28/09:00pm 17.9 14.1 -0.4 29 7.9 SE 9 11 5 6 1015.3 1014.8 0.0
28/08:30pm 18.2 14.4 -0.6 28 8.1 SE 9 11 5 6 1015.1 - 0.0
28/08:00pm 19.4 15.2 -1.1 25 8.9 SE 11 13 6 7 1014.8 - 0.0
28/07:30pm 21.4 17.9 -1.2 22 9.9 ESE 7 9 4 5 1014.3 - 0.0
28/07:00pm 25.8 21.1 -4.7 13 13.0 ESE 11 13 6 7 1014.0 - 0.0
28/06:30pm 27.7 22.1 -6.6 10 14.4 ESE 15 19 8 10 1013.7 - 0.0
28/06:00pm 29.5 24.4 -5.3 10 15.2 ESE 13 17 7 9 1013.3 1012.8 0.0
28/05:30pm 30.6 24.7 -5.8 9 15.9 E 17 24 9 13 1013.1 - 0.0
28/05:00pm 31.1 25.2 -5.5 9 16.1 E 17 24 9 13 1013.0 - 0.0
28/04:30pm 31.2 24.9 -5.4 9 16.2 ESE 19 32 10 17 1012.8 - 0.0
28/04:00pm 31.1 24.5 -7.0 8 16.4 SE 20 28 11 15 1013.0 - 0.0
28/03:30pm 31.7 25.5 -5.0 9 16.4 ENE 19 30 10 16 1013.0 - 0.0
28/03:00pm 31.2 24.4 -5.4 9 16.2 E 22 33 12 18 1013.2 1012.7 0.0
28/02:30pm 30.9 24.1 -5.6 9 16.0 ESE 22 39 12 21 1013.5 - 0.0
28/02:00pm 31.1 24.6 -5.5 9 16.1 ESE 20 33 11 18 1013.9 - 0.0
28/01:30pm 30.3 23.0 -6.1 9 15.8 E 24 35 13 19 1014.5 - 0.0
28/01:00pm 29.4 21.8 -5.4 10 15.1 E 26 35 14 19 1015.2 - 0.0
28/12:30pm 29.7 22.3 -3.9 11 15.0 E 26 39 14 21 1015.7 - 0.0
28/12:00pm 28.7 20.8 -4.6 11 14.6 ESE 28 39 15 21 1016.3 1015.7 0.0
28/11:30am 28.1 21.0 -0.9 15 13.5 E 26 35 14 19 1016.7 - 0.0
28/11:00am 26.8 19.5 -0.3 17 12.7 ESE 28 43 15 23 1017.2 - 0.0
28/10:30am 26.7 19.3 1.9 20 12.0 ESE 30 39 16 21 1017.3 - 0.0
28/10:00am 25.0 20.0 4.7 27 10.2 E 20 32 11 17 1017.6 - 0.0
28/09:30am 23.7 18.9 5.6 31 9.2 ESE 20 28 11 15 1017.7 - 0.0
28/09:00am 20.9 17.3 6.8 40 7.2 SE 15 20 8 11 1017.8 1017.2 0.0
28/08:30am 17.9 14.3 4.8 42 6.3 SE 13 19 7 10 1017.8 - 0.0
28/08:00am 15.4 12.2 2.9 43 5.7 SE 9 13 5 7 1017.7 - 0.0
28/07:30am 13.4 10.1 2.6 48 4.8 SE 9 13 5 7 1017.5 - 0.0
28/07:00am 11.2 7.4 2.0 53 3.9 SE 11 13 6 7 1017.2 - 0.0
28/06:30am 11.8 8.4 1.7 50 4.3 SE 9 11 5 6 1016.8 - 0.0
28/06:00am 11.5 7.4 2.0 52 4.1 SE 13 15 7 8 1016.3 1015.7 0.0
28/05:30am 12.2 7.6 1.8 49 4.5 SE 15 17 8 9 1016.0 - 0.0
28/05:00am 12.8 8.6 1.8 47 4.8 SE 13 17 7 9 1015.9 - 0.0
28/04:30am 12.8 8.3 2.1 48 4.7 SE 15 20 8 11 1015.8 - 0.0
28/04:00am 10.6 7.3 2.4 57 3.5 S 9 9 5 5 1015.3 - 0.0
28/03:30am 11.1 7.8 2.7 56 3.7 SE 9 11 5 6 1015.5 - 0.0
28/03:00am 11.1 7.8 2.4 55 3.8 SE 9 9 5 5 1015.6 1015.1 0.0
28/02:30am 11.3 8.0 2.3 54 3.9 SE 9 11 5 6 1015.6 - 0.0
28/02:00am 12.8 9.1 2.1 48 4.7 SE 11 11 6 6 1015.8 - 0.0
28/01:30am 14.5 10.7 1.8 42 5.6 SE 11 11 6 6 1015.9 - 0.0
28/01:00am 14.2 10.4 1.5 42 5.5 SE 11 13 6 7 1016.0 - 0.0
28/12:30am 16.2 12.2 0.7 35 6.8 SSE 11 13 6 7 1016.3 - 0.0
28/12:00am 18.7 14.6 -0.2 28 8.3 ESE 11 15 6 8 1016.3 1015.7 0.0
 
Date/Time
CST
Temp
°C
App
Temp
°C
Dew
Point
Rel
Hum
%
Delta-T
°C
Wind Press
QNH
hPa
Press
MSL
hPa
Rain
since 9 am
mm
Dir
 
Spd
km/h
Gust
km/h
Spd
kts
Gust
kts
27/11:30pm 21.9 16.7 -0.1 23 9.9 ENE 17 22 9 12 1016.0 - 0.0
27/11:00pm 20.1 15.6 0.0 26 8.9 E 13 17 7 9 1015.8 - 0.0
27/10:30pm 17.4 13.7 -0.3 30 7.6 ESE 9 13 5 7 1015.6 - 0.0
27/10:00pm 18.8 15.0 -0.6 27 8.4 ESE 9 11 5 6 1015.6 - 0.0
27/09:30pm 19.9 15.2 -1.8 23 9.3 E 13 13 7 7 1015.6 - 0.0
27/09:00pm 17.5 13.5 0.2 31 7.6 SE 11 11 6 6 1015.3 1014.8 0.0
27/08:30pm 18.6 14.9 -0.2 28 8.2 SE 9 9 5 5 1015.1 - 0.0
27/08:00pm 20.7 17.4 0.0 25 9.3 SE 7 9 4 5 1014.6 - 0.0
27/07:30pm 22.8 19.0 -0.6 21 10.5 SE 9 11 5 6 1014.1 - 0.0
27/07:00pm 25.7 21.1 -3.8 14 12.8 SE 11 13 6 7 1013.5 - 0.0
27/06:30pm 27.3 22.6 -4.6 12 13.8 ESE 11 15 6 8 1013.2 - 0.0
27/06:00pm 29.5 23.6 -5.3 10 15.2 ESE 17 24 9 13 1013.0 1012.5 0.0
27/05:30pm 30.3 23.9 -4.7 10 15.5 SE 20 28 11 15 1012.8 - 0.0
27/05:00pm 30.7 23.6 -4.4 10 15.7 ESE 24 32 13 17 1012.6 - 0.0
27/04:30pm 31.1 25.1 -1.6 12 15.4 E 20 28 11 15 1012.6 - 0.0
27/04:00pm 31.7 25.0 -1.2 12 15.7 ESE 24 35 13 19 1012.5 - 0.0
27/03:30pm 31.2 24.6 -0.5 13 15.2 ESE 24 39 13 21 1012.6 - 0.0
27/03:00pm 31.5 25.1 0.8 14 15.1 E 24 37 13 20 1012.8 1012.2 0.0
27/02:30pm 31.3 24.1 0.6 14 15.0 SE 28 39 15 21 1013.2 - 0.0
27/02:00pm 30.9 24.3 2.2 16 14.4 ESE 26 35 14 19 1013.8 - 0.0
27/01:30pm 30.4 22.7 3.4 18 13.8 E 33 44 18 24 1014.3 - 0.0
27/01:00pm 30.2 23.5 5.5 21 13.0 E 30 44 16 24 1015.1 - 0.0
27/12:30pm 29.0 22.5 6.4 24 12.0 ESE 30 41 16 22 1015.5 - 0.0
27/12:00pm 29.2 22.8 5.3 22 12.5 E 28 50 15 27 1015.9 1015.4 0.0
27/11:30am 27.6 20.6 6.9 27 11.0 E 33 46 18 25 1016.6 - 0.0
27/11:00am 26.9 21.3 8.8 32 9.9 ESE 28 43 15 23 1017.0 - 0.0
27/10:30am 25.5 21.1 11.7 42 7.9 ESE 26 37 14 20 1017.4 - 0.0
27/10:00am 24.1 21.6 14.2 54 5.9 ESE 20 30 11 16 1017.6 - 0.0
27/09:30am 22.5 20.5 14.9 62 4.5 ESE 19 28 10 15 1017.6 - 0.0
27/09:00am 20.7 18.3 15.5 72 3.1 ESE 22 30 12 16 1017.7 1017.1 0.0
27/08:45am 19.8 18.2 15.0 74 2.8 ESE 17 24 9 13 1017.6 - 0.0
27/08:30am 18.5 16.5 14.0 75 2.6 SE 17 22 9 12 1017.4 - 0.0
27/08:00am 16.9 14.7 12.2 74 2.6 SE 15 20 8 11 1016.9 - 0.0
27/07:30am 15.2 13.8 11.0 76 2.2 SE 9 13 5 7 1016.6 - 0.0
27/07:00am 13.7 12.1 10.1 79 1.9 SE 9 11 5 6 1016.2 - 0.0
27/06:30am 14.2 12.6 10.2 77 2.1 SE 9 11 5 6 1015.9 - 0.0
27/06:00am 14.1 11.9 9.3 73 2.5 SE 11 15 6 8 1015.5 1015.0 0.0
27/05:30am 14.4 11.7 8.8 69 2.9 SE 13 15 7 8 1015.1 - 0.0
27/05:00am 15.3 12.9 8.8 65 3.3 SE 11 13 6 7 1014.6 - 0.0
27/04:30am 15.1 12.5 7.6 61 3.7 SE 11 13 6 7 1014.6 - 0.0
27/04:00am 15.8 12.6 7.0 56 4.4 SSE 13 13 7 7 1014.6 - 0.0
27/03:30am 17.9 15.6 7.6 51 5.2 ESE 9 13 5 7 1014.7 - 0.0
27/03:00am 18.6 15.8 6.8 46 5.9 ESE 11 13 6 7 1014.7 1014.2 0.0
27/02:30am 19.2 16.1 5.6 41 6.7 ESE 11 13 6 7 1014.7 - 0.0
27/02:00am 20.1 16.4 4.6 36 7.6 E 13 17 7 9 1014.7 - 0.0
27/01:30am 20.3 16.1 3.9 34 7.9 E 15 17 8 9 1014.8 - 0.0
27/01:00am 20.1 16.4 4.2 35 7.7 ESE 13 17 7 9 1015.0 - 0.0
27/12:30am 18.9 15.6 2.7 34 7.5 SE 9 13 5 7 1014.9 - 0.0
27/12:00am 20.4 16.4 2.7 31 8.3 ESE 13 15 7 8 1015.0 1014.5 0.0
 
Date/Time
CST
Temp
°C
App
Temp
°C
Dew
Point
Rel
Hum
%
Delta-T
°C
Wind Press
QNH
hPa
Press
MSL
hPa
Rain
since 9 am
mm
Dir
 
Spd
km/h
Gust
km/h
Spd
kts
Gust
kts
26/11:30pm 19.2 15.3 1.2 30 8.1 SE 11 15 6 8 1015.1 - 0.0
26/11:00pm 21.0 16.4 1.3 27 9.1 ESE 15 19 8 10 1015.0 - 0.0
26/10:30pm 17.9 13.9 2.6 36 7.0 SE 13 15 7 8 1014.8 - 0.0
26/10:00pm 17.9 14.4 3.4 38 6.8 SE 11 13 6 7 1014.7 - 0.0
26/09:30pm 18.7 15.5 2.9 35 7.4 SE 9 11 5 6 1014.5 - 0.0
26/09:00pm 19.5 16.3 3.2 34 7.7 SE 9 11 5 6 1014.5 1014.0 0.0
26/08:30pm 19.9 16.8 3.6 34 7.8 ESE 9 11 5 6 1014.1 - 0.0
26/08:00pm 21.7 19.1 4.3 32 8.5 ESE 7 9 4 5 1013.8 - 0.0
26/07:30pm 23.4 20.2 2.8 26 9.9 SE 9 9 5 5 1013.4 - 0.0
26/07:00pm 25.7 22.3 1.8 21 11.5 SE 9 11 5 6 1013.0 - 0.0
26/06:30pm 27.9 24.0 1.4 18 12.9 SE 11 13 6 7 1012.6 - 0.0
26/06:00pm 30.0 24.7 -0.4 14 14.5 ESE 17 22 9 12 1012.4 1011.8 0.0
26/05:30pm 30.6 25.0 0.1 14 14.7 ESE 19 26 10 14 1012.3 - 0.0
26/05:00pm 31.0 25.2 -1.7 12 15.4 ESE 19 28 10 15 1012.3 - 0.0
26/04:30pm 31.5 25.9 -0.2 13 15.3 E 19 30 10 16 1012.4 - 0.0
26/04:00pm 31.3 26.0 -0.4 13 15.3 SE 17 24 9 13 1012.7 - 0.0
26/03:30pm 31.5 24.4 -1.3 12 15.6 E 26 39 14 21 1013.0 - 0.0
26/03:00pm 31.5 25.7 -0.2 13 15.3 E 20 32 11 17 1013.2 1012.7 0.0

Other Formats:

Comma delimited format used in spreadsheet applications
http://www.bom.gov.au/fwo/IDD60801/IDD60801.94131.axf

JavaScript Object Notation format (JSON) in row-major order
http://www.bom.gov.au/fwo/IDD60801/IDD60801.94131.json